sensor_id;sensor_type;location;lat;lon;timestamp;pressure;altitude;pressure_sealevel;temperature;humidity
76592;BME280;65481;47.600;19.682;2023-07-31T00:02:47;99899.59;;;18.03;100.00
76592;BME280;65481;47.600;19.682;2023-07-31T00:07:47;99883.28;;;18.05;100.00
76592;BME280;65481;47.600;19.682;2023-07-31T00:12:48;99885.78;;;17.96;100.00
76592;BME280;65481;47.600;19.682;2023-07-31T00:17:49;99894.31;;;17.98;100.00
76592;BME280;65481;47.600;19.682;2023-07-31T00:22:50;99902.81;;;18.00;100.00
76592;BME280;65481;47.600;19.682;2023-07-31T00:27:50;99894.06;;;17.94;100.00
76592;BME280;65481;47.600;19.682;2023-07-31T00:32:51;99889.91;;;17.83;100.00
76592;BME280;65481;47.600;19.682;2023-07-31T00:37:51;99888.91;;;17.79;100.00
76592;BME280;65481;47.600;19.682;2023-07-31T00:42:52;99889.72;;;17.79;100.00
76592;BME280;65481;47.600;19.682;2023-07-31T00:47:53;99897.41;;;17.81;100.00
76592;BME280;65481;47.600;19.682;2023-07-31T00:52:53;99892.19;;;17.95;100.00
76592;BME280;65481;47.600;19.682;2023-07-31T00:57:54;99878.34;;;17.93;100.00
76592;BME280;65481;47.600;19.682;2023-07-31T01:02:56;99874.06;;;17.92;100.00
76592;BME280;65481;47.600;19.682;2023-07-31T01:08:04;99874.44;;;17.85;100.00
76592;BME280;65481;47.600;19.682;2023-07-31T01:13:09;99870.94;;;17.84;100.00
76592;BME280;65481;47.600;19.682;2023-07-31T01:18:10;99872.28;;;17.87;100.00
76592;BME280;65481;47.600;19.682;2023-07-31T01:33:57;99880.41;;;17.47;100.00
76592;BME280;65481;47.600;19.682;2023-07-31T01:39:01;99881.84;;;17.39;100.00
76592;BME280;65481;47.600;19.682;2023-07-31T01:44:02;99885.06;;;17.36;100.00
76592;BME280;65481;47.600;19.682;2023-07-31T01:49:02;99881.38;;;17.32;100.00
76592;BME280;65481;47.600;19.682;2023-07-31T01:54:03;99875.28;;;17.26;100.00
76592;BME280;65481;47.600;19.682;2023-07-31T01:59:03;99882.09;;;17.14;100.00
76592;BME280;65481;47.600;19.682;2023-07-31T02:04:04;99881.78;;;17.15;100.00
76592;BME280;65481;47.600;19.682;2023-07-31T02:09:05;99885.19;;;17.21;100.00
76592;BME280;65481;47.600;19.682;2023-07-31T02:14:05;99882.81;;;17.19;100.00
76592;BME280;65481;47.600;19.682;2023-07-31T02:19:06;99891.72;;;17.09;100.00
76592;BME280;65481;47.600;19.682;2023-07-31T02:24:06;99895.25;;;17.00;100.00
76592;BME280;65481;47.600;19.682;2023-07-31T02:29:06;99898.22;;;16.88;100.00
76592;BME280;65481;47.600;19.682;2023-07-31T02:34:07;99902.28;;;16.80;100.00
76592;BME280;65481;47.600;19.682;2023-07-31T02:39:07;99897.72;;;16.86;100.00
76592;BME280;65481;47.600;19.682;2023-07-31T02:44:08;99894.94;;;17.06;100.00
76592;BME280;65481;47.600;19.682;2023-07-31T02:49:08;99899.06;;;17.23;100.00
76592;BME280;65481;47.600;19.682;2023-07-31T02:54:09;99900.88;;;17.28;100.00
76592;BME280;65481;47.600;19.682;2023-07-31T02:59:09;99902.72;;;17.32;100.00
76592;BME280;65481;47.600;19.682;2023-07-31T03:04:10;99907.78;;;17.29;100.00
76592;BME280;65481;47.600;19.682;2023-07-31T03:09:10;99907.78;;;17.29;100.00
76592;BME280;65481;47.600;19.682;2023-07-31T03:14:11;99908.16;;;17.17;100.00
76592;BME280;65481;47.600;19.682;2023-07-31T03:19:11;99910.78;;;17.22;100.00
76592;BME280;65481;47.600;19.682;2023-07-31T03:24:12;99918.78;;;17.22;100.00
76592;BME280;65481;47.600;19.682;2023-07-31T03:29:12;99936.69;;;17.16;100.00
76592;BME280;65481;47.600;19.682;2023-07-31T03:34:13;99939.94;;;17.08;100.00
76592;BME280;65481;47.600;19.682;2023-07-31T03:39:13;99943.22;;;17.00;100.00
76592;BME280;65481;47.600;19.682;2023-07-31T03:44:14;99941.38;;;16.90;100.00
76592;BME280;65481;47.600;19.682;2023-07-31T03:49:14;99941.16;;;16.86;100.00
76592;BME280;65481;47.600;19.682;2023-07-31T03:54:15;99943.50;;;16.93;100.00
76592;BME280;65481;47.600;19.682;2023-07-31T03:59:15;99947.00;;;16.88;100.00
76592;BME280;65481;47.600;19.682;2023-07-31T04:04:15;99941.59;;;17.04;100.00
76592;BME280;65481;47.600;19.682;2023-07-31T04:09:16;99952.09;;;17.24;100.00
76592;BME280;65481;47.600;19.682;2023-07-31T04:14:16;99943.72;;;17.36;100.00
76592;BME280;65481;47.600;19.682;2023-07-31T04:19:17;99939.56;;;17.54;100.00
76592;BME280;65481;47.600;19.682;2023-07-31T04:24:18;99932.72;;;17.73;100.00
76592;BME280;65481;47.600;19.682;2023-07-31T04:29:24;99943.16;;;17.98;100.00
76592;BME280;65481;47.600;19.682;2023-07-31T04:34:24;99930.28;;;18.25;100.00
76592;BME280;65481;47.600;19.682;2023-07-31T04:39:25;99936.59;;;18.53;100.00
76592;BME280;65481;47.600;19.682;2023-07-31T04:44:25;99927.72;;;18.77;100.00
76592;BME280;65481;47.600;19.682;2023-07-31T04:49:26;99933.28;;;19.00;100.00
76592;BME280;65481;47.600;19.682;2023-07-31T04:54:26;99933.47;;;19.22;100.00
76592;BME280;65481;47.600;19.682;2023-07-31T04:59:27;99934.28;;;19.37;100.00
76592;BME280;65481;47.600;19.682;2023-07-31T05:04:27;99928.88;;;19.56;100.00
76592;BME280;65481;47.600;19.682;2023-07-31T05:09:28;99934.66;;;19.77;100.00
76592;BME280;65481;47.600;19.682;2023-07-31T05:14:28;99941.31;;;20.08;100.00
76592;BME280;65481;47.600;19.682;2023-07-31T05:19:29;99930.28;;;20.37;100.00
76592;BME280;65481;47.600;19.682;2023-07-31T05:24:29;99938.72;;;20.67;100.00
76592;BME280;65481;47.600;19.682;2023-07-31T05:29:30;99943.97;;;20.86;100.00
76592;BME280;65481;47.600;19.682;2023-07-31T05:34:31;99941.75;;;21.11;100.00
76592;BME280;65481;47.600;19.682;2023-07-31T05:39:31;99939.09;;;21.43;100.00
76592;BME280;65481;47.600;19.682;2023-07-31T05:44:32;99940.97;;;22.05;100.00
76592;BME280;65481;47.600;19.682;2023-07-31T05:49:32;99943.38;;;22.16;100.00
76592;BME280;65481;47.600;19.682;2023-07-31T05:54:33;99949.94;;;22.50;100.00
76592;BME280;65481;47.600;19.682;2023-07-31T05:59:35;99948.22;;;22.89;98.88
76592;BME280;65481;47.600;19.682;2023-07-31T06:04:35;99946.16;;;22.68;96.62
76592;BME280;65481;47.600;19.682;2023-07-31T06:09:36;99961.72;;;22.31;97.28
76592;BME280;65481;47.600;19.682;2023-07-31T06:14:36;99977.78;;;22.63;94.95
76592;BME280;65481;47.600;19.682;2023-07-31T06:19:37;99982.22;;;23.03;91.85
76592;BME280;65481;47.600;19.682;2023-07-31T06:24:37;99971.41;;;23.47;89.21
76592;BME280;65481;47.600;19.682;2023-07-31T06:29:38;99978.47;;;24.38;83.99
76592;BME280;65481;47.600;19.682;2023-07-31T06:34:38;99968.91;;;25.37;76.75
76592;BME280;65481;47.600;19.682;2023-07-31T06:39:39;99960.66;;;26.05;70.62
76592;BME280;65481;47.600;19.682;2023-07-31T06:44:39;99954.47;;;25.54;67.90
76592;BME280;65481;47.600;19.682;2023-07-31T06:49:40;99966.28;;;25.62;64.84
76592;BME280;65481;47.600;19.682;2023-07-31T06:54:40;99970.13;;;26.36;61.06
76592;BME280;65481;47.600;19.682;2023-07-31T06:59:41;99969.59;;;26.99;57.60
76592;BME280;65481;47.600;19.682;2023-07-31T07:04:41;99979.03;;;26.65;56.17
76592;BME280;65481;47.600;19.682;2023-07-31T07:09:41;99992.09;;;26.75;55.42
76592;BME280;65481;47.600;19.682;2023-07-31T07:14:42;99990.09;;;26.72;54.28
76592;BME280;65481;47.600;19.682;2023-07-31T07:19:43;99979.16;;;27.25;51.66
76592;BME280;65481;47.600;19.682;2023-07-31T07:24:43;99963.56;;;27.83;49.36
76592;BME280;65481;47.600;19.682;2023-07-31T07:29:46;99961.06;;;28.09;47.59
76592;BME280;65481;47.600;19.682;2023-07-31T07:34:48;99969.41;;;28.17;47.43
76592;BME280;65481;47.600;19.682;2023-07-31T07:39:48;99969.56;;;28.44;47.77
76592;BME280;65481;47.600;19.682;2023-07-31T07:44:49;99967.72;;;28.48;47.79
76592;BME280;65481;47.600;19.682;2023-07-31T07:49:49;99969.56;;;28.44;47.59
76592;BME280;65481;47.600;19.682;2023-07-31T07:54:50;99955.00;;;28.32;48.12
76592;BME280;65481;47.600;19.682;2023-07-31T07:59:51;99969.06;;;28.02;49.05
76592;BME280;65481;47.600;19.682;2023-07-31T08:04:51;99974.16;;;27.11;50.76
76592;BME280;65481;47.600;19.682;2023-07-31T08:09:52;99974.38;;;26.78;51.66
76592;BME280;65481;47.600;19.682;2023-07-31T08:14:52;99967.16;;;27.71;49.18
76592;BME280;65481;47.600;19.682;2023-07-31T08:19:53;99970.81;;;28.10;47.72
76592;BME280;65481;47.600;19.682;2023-07-31T08:24:53;99965.88;;;29.11;45.02
76592;BME280;65481;47.600;19.682;2023-07-31T08:29:54;99963.28;;;28.20;43.89
76592;BME280;65481;47.600;19.682;2023-07-31T08:34:54;99957.34;;;26.77;45.63
76592;BME280;65481;47.600;19.682;2023-07-31T08:39:55;99958.72;;;27.92;45.31
76592;BME280;65481;47.600;19.682;2023-07-31T08:44:56;99961.38;;;28.60;44.24
76592;BME280;65481;47.600;19.682;2023-07-31T08:49:57;99962.53;;;28.23;37.70
76592;BME280;65481;47.600;19.682;2023-07-31T08:54:58;99963.50;;;28.50;36.11
76592;BME280;65481;47.600;19.682;2023-07-31T08:59:59;99953.41;;;29.53;33.65
76592;BME280;65481;47.600;19.682;2023-07-31T09:05:01;99955.50;;;29.90;32.59
76592;BME280;65481;47.600;19.682;2023-07-31T09:10:03;99948.78;;;30.07;33.47
76592;BME280;65481;47.600;19.682;2023-07-31T09:15:05;99942.56;;;28.31;32.10
76592;BME280;65481;47.600;19.682;2023-07-31T09:20:18;99947.13;;;27.59;32.33
76592;BME280;65481;47.600;19.682;2023-07-31T09:25:23;99941.97;;;28.77;29.70
76592;BME280;65481;47.600;19.682;2023-07-31T09:30:24;99933.44;;;30.22;30.00
76592;BME280;65481;47.600;19.682;2023-07-31T09:35:32;99941.81;;;30.71;28.88
76592;BME280;65481;47.600;19.682;2023-07-31T09:40:35;99932.28;;;30.91;29.77
76592;BME280;65481;47.600;19.682;2023-07-31T09:45:40;99931.28;;;31.52;27.93
76592;BME280;65481;47.600;19.682;2023-07-31T09:50:43;99939.28;;;31.75;28.72
76592;BME280;65481;47.600;19.682;2023-07-31T09:55:44;99929.09;;;31.20;29.02
76592;BME280;65481;47.600;19.682;2023-07-31T10:00:45;99930.34;;;31.30;29.60
76592;BME280;65481;47.600;19.682;2023-07-31T10:05:49;99933.03;;;31.26;30.85
76592;BME280;65481;47.600;19.682;2023-07-31T10:10:51;99932.94;;;31.15;31.05
76592;BME280;65481;47.600;19.682;2023-07-31T10:15:52;99915.94;;;31.29;30.97
76592;BME280;65481;47.600;19.682;2023-07-31T10:20:54;99914.81;;;31.90;31.18
76592;BME280;65481;47.600;19.682;2023-07-31T10:25:57;99926.66;;;31.60;30.57
76592;BME280;65481;47.600;19.682;2023-07-31T10:30:59;99923.50;;;31.54;30.83
76592;BME280;65481;47.600;19.682;2023-07-31T10:36:17;99912.88;;;31.94;30.42
76592;BME280;65481;47.600;19.682;2023-07-31T10:41:18;99919.94;;;32.02;29.53
76592;BME280;65481;47.600;19.682;2023-07-31T10:46:19;99909.00;;;31.95;29.37
76592;BME280;65481;47.600;19.682;2023-07-31T10:51:20;99908.81;;;32.40;29.11
76592;BME280;65481;47.600;19.682;2023-07-31T10:56:25;99911.06;;;32.23;29.12
76592;BME280;65481;47.600;19.682;2023-07-31T11:07:00;99900.34;;;31.82;29.58
76592;BME280;65481;47.600;19.682;2023-07-31T11:12:01;99893.09;;;32.18;29.35
76592;BME280;65481;47.600;19.682;2023-07-31T11:17:06;99896.53;;;32.01;28.96
76592;BME280;65481;47.600;19.682;2023-07-31T11:22:07;99895.03;;;32.11;28.73
76592;BME280;65481;47.600;19.682;2023-07-31T11:27:07;99900.50;;;32.14;28.47
76592;BME280;65481;47.600;19.682;2023-07-31T11:32:16;99899.53;;;31.78;28.85
76592;BME280;65481;47.600;19.682;2023-07-31T11:37:17;99898.44;;;31.90;29.23
76592;BME280;65481;47.600;19.682;2023-07-31T11:42:17;99901.81;;;32.46;29.22
76592;BME280;65481;47.600;19.682;2023-07-31T11:47:18;99893.06;;;32.08;29.22
76592;BME280;65481;47.600;19.682;2023-07-31T11:52:18;99893.88;;;32.15;29.88
76592;BME280;65481;47.600;19.682;2023-07-31T11:57:23;99886.31;;;31.80;29.93
76592;BME280;65481;47.600;19.682;2023-07-31T12:02:25;99888.94;;;31.65;29.78
76592;BME280;65481;47.600;19.682;2023-07-31T12:07:26;99879.47;;;31.48;29.57
76592;BME280;65481;47.600;19.682;2023-07-31T12:12:26;99884.47;;;31.39;29.62
76592;BME280;65481;47.600;19.682;2023-07-31T12:17:27;99884.59;;;31.61;30.03
76592;BME280;65481;47.600;19.682;2023-07-31T12:22:27;99872.34;;;31.33;28.92
76592;BME280;65481;47.600;19.682;2023-07-31T12:27:32;99871.53;;;31.88;29.09
76592;BME280;65481;47.600;19.682;2023-07-31T12:32:33;99867.72;;;32.04;28.52
76592;BME280;65481;47.600;19.682;2023-07-31T12:37:33;99854.09;;;32.07;28.58
76592;BME280;65481;47.600;19.682;2023-07-31T12:42:34;99865.06;;;32.25;27.94
76592;BME280;65481;47.600;19.682;2023-07-31T12:47:34;99849.81;;;32.10;28.00
76592;BME280;65481;47.600;19.682;2023-07-31T12:52:35;99851.53;;;32.54;27.48
76592;BME280;65481;47.600;19.682;2023-07-31T12:57:35;99839.59;;;31.85;27.92
76592;BME280;65481;47.600;19.682;2023-07-31T13:02:36;99837.22;;;31.83;27.72
76592;BME280;65481;47.600;19.682;2023-07-31T13:07:37;99828.09;;;31.54;27.55
76592;BME280;65481;47.600;19.682;2023-07-31T13:12:38;99826.50;;;31.49;27.78
76592;BME280;65481;47.600;19.682;2023-07-31T13:17:38;99819.06;;;31.39;27.99
76592;BME280;65481;47.600;19.682;2023-07-31T13:22:39;99812.88;;;30.97;28.65
76592;BME280;65481;47.600;19.682;2023-07-31T13:27:39;99806.56;;;30.82;28.69
76592;BME280;65481;47.600;19.682;2023-07-31T13:32:40;99812.94;;;31.01;28.49
76592;BME280;65481;47.600;19.682;2023-07-31T13:37:40;99808.53;;;31.37;28.94
76592;BME280;65481;47.600;19.682;2023-07-31T13:42:41;99806.44;;;31.79;29.06
76592;BME280;65481;47.600;19.682;2023-07-31T13:47:41;99793.66;;;32.09;27.57
76592;BME280;65481;47.600;19.682;2023-07-31T13:52:41;99791.66;;;31.84;27.53
76592;BME280;65481;47.600;19.682;2023-07-31T13:57:42;99796.63;;;31.67;27.78
76592;BME280;65481;47.600;19.682;2023-07-31T14:02:43;99803.06;;;31.37;27.72
76592;BME280;65481;47.600;19.682;2023-07-31T14:07:43;99796.56;;;31.56;27.74
76592;BME280;65481;47.600;19.682;2023-07-31T14:12:44;99786.38;;;31.46;28.43
76592;BME280;65481;47.600;19.682;2023-07-31T14:17:44;99786.88;;;31.03;27.90
76592;BME280;65481;47.600;19.682;2023-07-31T14:22:45;99787.34;;;30.64;28.39
76592;BME280;65481;47.600;19.682;2023-07-31T14:27:45;99787.28;;;31.09;28.94
76592;BME280;65481;47.600;19.682;2023-07-31T14:32:47;99781.53;;;31.14;28.53
76592;BME280;65481;47.600;19.682;2023-07-31T14:37:47;99771.69;;;31.02;28.09
76592;BME280;65481;47.600;19.682;2023-07-31T14:42:48;99769.16;;;30.75;27.99
76592;BME280;65481;47.600;19.682;2023-07-31T14:47:48;99765.03;;;30.96;28.81
76592;BME280;65481;47.600;19.682;2023-07-31T14:52:49;99761.44;;;30.02;29.02
76592;BME280;65481;47.600;19.682;2023-07-31T14:57:49;99752.69;;;29.85;29.38
76592;BME280;65481;47.600;19.682;2023-07-31T15:02:50;99747.19;;;29.21;28.81
76592;BME280;65481;47.600;19.682;2023-07-31T15:07:50;99756.19;;;28.75;30.21
76592;BME280;65481;47.600;19.682;2023-07-31T15:12:51;99750.66;;;28.48;30.59
76592;BME280;65481;47.600;19.682;2023-07-31T15:17:51;99745.94;;;28.45;31.56
76592;BME280;65481;47.600;19.682;2023-07-31T15:22:52;99737.84;;;28.25;31.37
76592;BME280;65481;47.600;19.682;2023-07-31T15:27:52;99744.50;;;28.51;30.94
76592;BME280;65481;47.600;19.682;2023-07-31T15:32:53;99743.91;;;28.61;30.95
76592;BME280;65481;47.600;19.682;2023-07-31T15:37:53;99749.75;;;28.40;31.50
76592;BME280;65481;47.600;19.682;2023-07-31T15:42:55;99739.09;;;28.08;31.67
76592;BME280;65481;47.600;19.682;2023-07-31T15:47:55;99733.56;;;28.24;31.59
76592;BME280;65481;47.600;19.682;2023-07-31T15:52:56;99728.09;;;28.20;32.70
76592;BME280;65481;47.600;19.682;2023-07-31T15:57:56;99725.16;;;28.09;33.78
76592;BME280;65481;47.600;19.682;2023-07-31T16:02:57;99720.97;;;27.92;34.35
76592;BME280;65481;47.600;19.682;2023-07-31T16:07:57;99725.59;;;27.92;34.82
76592;BME280;65481;47.600;19.682;2023-07-31T16:12:58;99716.53;;;27.84;34.89
76592;BME280;65481;47.600;19.682;2023-07-31T16:17:58;99710.63;;;27.78;35.02
76592;BME280;65481;47.600;19.682;2023-07-31T16:22:59;99707.97;;;27.82;34.91
76592;BME280;65481;47.600;19.682;2023-07-31T16:27:59;99709.13;;;27.61;34.38
76592;BME280;65481;47.600;19.682;2023-07-31T16:33:00;99710.84;;;27.34;34.63
76592;BME280;65481;47.600;19.682;2023-07-31T16:38:00;99718.09;;;27.10;35.03
76592;BME280;65481;47.600;19.682;2023-07-31T16:43:01;99712.88;;;27.01;35.86
76592;BME280;65481;47.600;19.682;2023-07-31T16:48:01;99713.47;;;26.79;37.07
76592;BME280;65481;47.600;19.682;2023-07-31T16:53:02;99727.63;;;26.72;38.34
76592;BME280;65481;47.600;19.682;2023-07-31T16:58:03;99735.44;;;26.45;38.62
76592;BME280;65481;47.600;19.682;2023-07-31T17:03:04;99744.31;;;26.29;38.98
76592;BME280;65481;47.600;19.682;2023-07-31T17:08:05;99747.34;;;26.12;39.06
76592;BME280;65481;47.600;19.682;2023-07-31T17:13:06;99749.63;;;25.97;39.32
76592;BME280;65481;47.600;19.682;2023-07-31T17:18:06;99757.13;;;25.76;39.13
76592;BME280;65481;47.600;19.682;2023-07-31T17:23:08;99755.47;;;25.59;39.82
76592;BME280;65481;47.600;19.682;2023-07-31T17:28:09;99752.91;;;25.37;40.40
76592;BME280;65481;47.600;19.682;2023-07-31T17:33:10;99754.16;;;25.15;42.55
76592;BME280;65481;47.600;19.682;2023-07-31T17:38:10;99762.47;;;24.98;43.83
76592;BME280;65481;47.600;19.682;2023-07-31T17:43:11;99767.84;;;24.73;44.99
76592;BME280;65481;47.600;19.682;2023-07-31T17:48:12;99774.72;;;24.49;46.67
76592;BME280;65481;47.600;19.682;2023-07-31T17:53:12;99765.91;;;24.27;48.29
76592;BME280;65481;47.600;19.682;2023-07-31T17:58:13;99763.09;;;24.02;49.52
76592;BME280;65481;47.600;19.682;2023-07-31T18:03:14;99767.53;;;23.77;50.98
76592;BME280;65481;47.600;19.682;2023-07-31T18:08:15;99770.19;;;23.56;52.60
76592;BME280;65481;47.600;19.682;2023-07-31T18:13:16;99767.50;;;23.35;53.47
76592;BME280;65481;47.600;19.682;2023-07-31T18:18:17;99775.16;;;23.15;54.84
76592;BME280;65481;47.600;19.682;2023-07-31T18:23:18;99782.66;;;23.01;56.16
76592;BME280;65481;47.600;19.682;2023-07-31T18:28:19;99780.03;;;22.83;56.62
76592;BME280;65481;47.600;19.682;2023-07-31T18:33:19;99780.06;;;22.74;57.53
76592;BME280;65481;47.600;19.682;2023-07-31T18:38:20;99784.50;;;22.61;58.01
76592;BME280;65481;47.600;19.682;2023-07-31T18:43:21;99788.00;;;22.53;58.77
76592;BME280;65481;47.600;19.682;2023-07-31T18:48:22;99784.88;;;22.42;58.65
76592;BME280;65481;47.600;19.682;2023-07-31T18:53:23;99782.81;;;22.48;56.89
76592;BME280;65481;47.600;19.682;2023-07-31T18:58:24;99785.00;;;22.46;56.44
76592;BME280;65481;47.600;19.682;2023-07-31T19:03:25;99800.19;;;22.24;57.16
76592;BME280;65481;47.600;19.682;2023-07-31T19:08:25;99805.06;;;21.87;58.62
76592;BME280;65481;47.600;19.682;2023-07-31T19:13:26;99812.91;;;21.66;59.74
76592;BME280;65481;47.600;19.682;2023-07-31T19:18:28;99813.94;;;21.47;60.43
76592;BME280;65481;47.600;19.682;2023-07-31T19:23:29;99816.75;;;21.42;60.54
76592;BME280;65481;47.600;19.682;2023-07-31T19:28:29;99814.69;;;21.39;61.00
76592;BME280;65481;47.600;19.682;2023-07-31T19:33:30;99815.19;;;21.41;62.95
76592;BME280;65481;47.600;19.682;2023-07-31T19:38:31;99821.63;;;21.31;62.81
76592;BME280;65481;47.600;19.682;2023-07-31T19:43:33;99815.56;;;21.16;63.47
76592;BME280;65481;47.600;19.682;2023-07-31T19:48:34;99819.84;;;21.17;62.56
76592;BME280;65481;47.600;19.682;2023-07-31T19:53:35;99820.16;;;21.16;63.48
76592;BME280;65481;47.600;19.682;2023-07-31T19:58:36;99815.88;;;20.83;65.28
76592;BME280;65481;47.600;19.682;2023-07-31T20:03:36;99818.44;;;20.66;65.80
76592;BME280;65481;47.600;19.682;2023-07-31T20:08:39;99825.00;;;20.60;66.88
76592;BME280;65481;47.600;19.682;2023-07-31T20:13:40;99827.81;;;20.77;67.30
76592;BME280;65481;47.600;19.682;2023-07-31T20:18:42;99830.56;;;20.86;66.51
76592;BME280;65481;47.600;19.682;2023-07-31T20:23:44;99828.00;;;20.58;67.39
76592;BME280;65481;47.600;19.682;2023-07-31T20:28:45;99821.06;;;20.20;69.10
76592;BME280;65481;47.600;19.682;2023-07-31T20:33:47;99814.53;;;20.12;69.59
76592;BME280;65481;47.600;19.682;2023-07-31T20:38:47;99806.25;;;19.72;71.12
76592;BME280;65481;47.600;19.682;2023-07-31T20:43:48;99812.94;;;19.61;72.29
76592;BME280;65481;47.600;19.682;2023-07-31T20:48:49;99812.06;;;19.51;73.68
76592;BME280;65481;47.600;19.682;2023-07-31T20:53:50;99803.63;;;19.58;76.44
76592;BME280;65481;47.600;19.682;2023-07-31T20:58:52;99800.44;;;19.70;74.02
76592;BME280;65481;47.600;19.682;2023-07-31T21:03:52;99803.53;;;19.49;73.74
76592;BME280;65481;47.600;19.682;2023-07-31T21:08:53;99806.69;;;19.37;75.76
76592;BME280;65481;47.600;19.682;2023-07-31T21:13:54;99797.53;;;19.11;76.24
76592;BME280;65481;47.600;19.682;2023-07-31T21:18:55;99805.00;;;18.48;78.50
76592;BME280;65481;47.600;19.682;2023-07-31T21:23:56;99803.63;;;18.12;80.58
76592;BME280;65481;47.600;19.682;2023-07-31T21:28:56;99800.91;;;18.17;81.09
76592;BME280;65481;47.600;19.682;2023-07-31T21:33:57;99796.03;;;18.38;82.20
76592;BME280;65481;47.600;19.682;2023-07-31T21:38:57;99785.63;;;18.89;82.21
76592;BME280;65481;47.600;19.682;2023-07-31T21:43:58;99795.59;;;18.83;81.57
76592;BME280;65481;47.600;19.682;2023-07-31T21:48:58;99795.81;;;18.87;81.01
76592;BME280;65481;47.600;19.682;2023-07-31T21:53:59;99797.19;;;18.84;80.61
76592;BME280;65481;47.600;19.682;2023-07-31T21:58:59;99801.44;;;18.85;80.36
76592;BME280;65481;47.600;19.682;2023-07-31T22:04:01;99782.72;;;18.71;81.46
76592;BME280;65481;47.600;19.682;2023-07-31T22:09:01;99791.63;;;18.48;83.06
76592;BME280;65481;47.600;19.682;2023-07-31T22:14:02;99788.13;;;18.66;82.39
76592;BME280;65481;47.600;19.682;2023-07-31T22:19:02;99790.13;;;18.41;83.28
76592;BME280;65481;47.600;19.682;2023-07-31T22:24:03;99776.28;;;18.20;83.50
76592;BME280;65481;47.600;19.682;2023-07-31T22:29:03;99773.25;;;18.27;82.91
76592;BME280;65481;47.600;19.682;2023-07-31T22:34:04;99761.72;;;18.12;83.34
76592;BME280;65481;47.600;19.682;2023-07-31T22:39:04;99764.81;;;18.00;83.73
76592;BME280;65481;47.600;19.682;2023-07-31T22:44:05;99762.03;;;17.67;83.76
76592;BME280;65481;47.600;19.682;2023-07-31T22:49:05;99760.41;;;17.47;84.30
76592;BME280;65481;47.600;19.682;2023-07-31T22:54:06;99751.56;;;17.52;84.22
76592;BME280;65481;47.600;19.682;2023-07-31T22:59:06;99752.56;;;17.56;84.94
76592;BME280;65481;47.600;19.682;2023-07-31T23:04:07;99749.31;;;17.59;85.62
76592;BME280;65481;47.600;19.682;2023-07-31T23:09:07;99748.81;;;17.57;85.66
76592;BME280;65481;47.600;19.682;2023-07-31T23:14:08;99743.69;;;17.41;86.44
76592;BME280;65481;47.600;19.682;2023-07-31T23:19:08;99731.59;;;17.25;87.33
76592;BME280;65481;47.600;19.682;2023-07-31T23:24:09;99723.19;;;16.88;89.67
76592;BME280;65481;47.600;19.682;2023-07-31T23:29:09;99727.94;;;16.91;89.86
76592;BME280;65481;47.600;19.682;2023-07-31T23:34:10;99712.06;;;17.10;89.60
76592;BME280;65481;47.600;19.682;2023-07-31T23:39:10;99709.56;;;16.95;90.92
76592;BME280;65481;47.600;19.682;2023-07-31T23:44:13;99709.63;;;16.85;91.35
76592;BME280;65481;47.600;19.682;2023-07-31T23:49:14;99706.41;;;16.88;91.12
76592;BME280;65481;47.600;19.682;2023-07-31T23:54:15;99700.50;;;16.96;91.04
76592;BME280;65481;47.600;19.682;2023-07-31T23:59:15;99696.75;;;16.92;91.32
